createdAt,value
2023-02-18T00:01:44.320Z,25.83
2023-02-18T00:04:12.973Z,25.37
2023-02-18T00:06:41.843Z,24.93
2023-02-18T00:09:11.717Z,24.00
2023-02-18T00:11:41.749Z,24.07
2023-02-18T00:14:13.581Z,26.67
2023-02-18T00:16:42.943Z,24.17
2023-02-18T00:19:13.622Z,25.97
2023-02-18T00:21:42.901Z,25.17
2023-02-18T00:24:15.814Z,24.67
2023-02-18T00:26:46.371Z,24.87
2023-02-18T00:29:15.041Z,24.73
2023-02-18T00:31:43.868Z,25.33
2023-02-18T00:34:14.062Z,23.87
2023-02-18T00:36:43.286Z,26.20
2023-02-18T00:39:13.260Z,25.17
2023-02-18T00:41:42.728Z,26.00
2023-02-18T00:44:16.046Z,24.80
2023-02-18T00:46:44.874Z,26.30
2023-02-18T00:49:13.467Z,26.10
2023-02-18T00:51:42.185Z,25.80
2023-02-18T00:54:10.966Z,23.70
2023-02-18T00:56:40.760Z,25.00
2023-02-18T00:59:09.512Z,24.77
2023-02-18T01:01:39.622Z,23.50
2023-02-18T01:04:08.342Z,25.13
2023-02-18T01:06:36.970Z,24.53
2023-02-18T01:09:05.839Z,27.00
2023-02-18T01:11:34.978Z,23.27
2023-02-18T01:14:05.034Z,23.70
2023-02-18T01:16:33.803Z,25.23
2023-02-18T01:19:04.035Z,24.43
2023-02-18T01:21:32.994Z,24.47
2023-02-18T01:24:01.805Z,22.40
2023-02-18T01:26:30.518Z,27.47
2023-02-18T01:28:59.265Z,25.30
2023-02-18T01:31:28.191Z,24.63
2023-02-18T01:33:56.808Z,23.77
2023-02-18T01:36:26.755Z,24.53
2023-02-18T01:38:55.467Z,24.57
2023-02-18T01:41:24.398Z,21.27
2023-02-18T01:44:25.470Z,26.47
2023-02-18T01:46:54.335Z,24.13
2023-02-18T01:49:26.956Z,22.57
2023-02-18T01:52:01.421Z,24.83
2023-02-18T01:54:32.878Z,25.37
2023-02-18T01:57:05.865Z,25.37
2023-02-18T01:59:39.229Z,25.17
2023-02-18T02:02:11.442Z,25.80
2023-02-18T02:04:40.312Z,24.80
2023-02-18T02:07:11.093Z,26.17
2023-02-18T02:09:42.474Z,24.37
2023-02-18T02:12:34.177Z,24.63
2023-02-18T02:15:31.604Z,23.67
2023-02-18T02:18:17.206Z,25.97
2023-02-18T02:21:36.948Z,20.00
2023-02-18T02:24:28.846Z,21.67
2023-02-18T02:27:13.593Z,22.30
2023-02-18T02:30:27.237Z,19.57
2023-02-18T02:33:21.119Z,19.43
2023-02-18T02:35:58.295Z,17.87
2023-02-18T02:38:33.557Z,17.93
2023-02-18T02:41:13.857Z,19.33
2023-02-18T02:43:54.050Z,17.13
2023-02-18T02:46:28.036Z,17.47
2023-02-18T02:49:04.903Z,18.83
2023-02-18T02:51:42.735Z,18.43
2023-02-18T02:54:15.744Z,18.93
2023-02-18T02:56:44.588Z,18.40
2023-02-18T02:59:16.312Z,20.27
2023-02-18T03:01:58.222Z,18.00
2023-02-18T03:05:02.562Z,18.90
2023-02-18T03:07:49.758Z,18.67
2023-02-18T03:10:36.187Z,18.03
2023-02-18T03:13:13.523Z,22.27
2023-02-18T03:15:50.756Z,18.77
2023-02-18T03:18:29.407Z,20.50
2023-02-18T03:21:03.109Z,19.50
2023-02-18T03:23:38.322Z,20.23
2023-02-18T03:26:09.854Z,22.40
2023-02-18T03:28:39.651Z,20.33
2023-02-18T03:31:13.247Z,22.27
2023-02-18T03:33:51.174Z,20.00
2023-02-18T03:36:21.432Z,20.60
2023-02-18T03:38:57.486Z,19.10
2023-02-18T03:41:26.169Z,20.03
2023-02-18T03:43:56.523Z,21.37
2023-02-18T03:46:25.219Z,20.13
2023-02-18T03:48:54.004Z,21.43
2023-02-18T03:51:23.108Z,20.53
2023-02-18T03:53:53.191Z,20.10
2023-02-18T03:56:22.142Z,19.07
2023-02-18T03:58:50.874Z,19.37
2023-02-18T04:01:19.964Z,18.37
2023-02-18T04:03:48.748Z,15.20
2023-02-18T04:06:17.391Z,17.13
2023-02-18T04:08:46.311Z,17.40
2023-02-18T04:11:16.325Z,15.50
2023-02-18T04:13:44.974Z,16.20
2023-02-18T04:16:13.675Z,14.50
2023-02-18T04:18:42.434Z,14.80
2023-02-18T04:21:11.192Z,15.53
2023-02-18T04:23:41.079Z,13.57
2023-02-18T04:28:57.768Z,12.50
2023-02-18T04:31:29.176Z,12.23
2023-02-18T04:34:00.948Z,13.20
2023-02-18T04:36:29.721Z,13.70
2023-02-18T04:38:58.408Z,13.50
2023-02-18T04:41:27.048Z,13.30
2023-02-18T04:43:57.055Z,12.00
2023-02-18T04:46:25.681Z,12.27
2023-02-18T04:48:54.675Z,12.13
2023-02-18T04:51:23.246Z,12.47
2023-02-18T04:53:51.909Z,12.70
2023-02-18T04:56:20.631Z,12.23
2023-02-18T04:58:49.315Z,11.33
2023-02-18T05:01:19.993Z,10.93
2023-02-18T05:03:48.878Z,12.37
2023-02-18T05:06:17.734Z,12.20
2023-02-18T05:08:46.458Z,10.53
2023-02-18T05:11:15.081Z,10.67
2023-02-18T05:13:43.736Z,12.30
2023-02-18T05:16:12.582Z,12.17
2023-02-18T05:18:43.456Z,10.47
2023-02-18T05:21:12.541Z,12.53
2023-02-18T05:23:41.226Z,11.20
2023-02-18T05:26:10.577Z,13.00
2023-02-18T05:28:58.349Z,11.33
2023-02-18T05:31:27.013Z,10.53
2023-02-18T05:33:57.089Z,11.07
2023-02-18T05:36:26.087Z,13.60
2023-02-18T05:38:54.694Z,12.70
2023-02-18T05:41:23.499Z,10.17
2023-02-18T05:44:28.461Z,11.27
2023-02-18T05:46:57.178Z,11.80
2023-02-18T05:49:47.995Z,10.30
2023-02-18T05:52:16.728Z,11.50
2023-02-18T05:54:45.845Z,9.50
2023-02-18T05:57:15.828Z,9.63
2023-02-18T05:59:44.720Z,10.50
2023-02-18T06:02:13.349Z,10.90
2023-02-18T06:04:41.953Z,10.43
2023-02-18T06:07:11.991Z,12.37
2023-02-18T06:09:40.668Z,9.77
2023-02-18T06:15:54.340Z,10.43
2023-02-18T06:18:23.235Z,10.30
2023-02-18T06:20:53.107Z,10.47
2023-02-18T06:23:28.789Z,10.70
2023-02-18T06:25:57.454Z,11.97
2023-02-18T06:28:26.096Z,12.00
2023-02-18T06:31:14.502Z,12.60
2023-02-18T06:33:43.189Z,14.27
2023-02-18T06:36:13.541Z,15.67
2023-02-18T06:38:45.333Z,14.93
2023-02-18T06:41:15.758Z,16.07
2023-02-18T06:43:44.339Z,14.03
2023-02-18T06:46:12.965Z,14.97
2023-02-18T06:48:41.611Z,14.97
2023-02-18T06:51:10.305Z,16.47
2023-02-18T06:53:38.944Z,16.37
2023-02-18T06:56:09.408Z,17.03
2023-02-18T06:58:38.368Z,15.03
2023-02-18T07:01:45.193Z,15.03
2023-02-18T07:04:13.748Z,15.53
2023-02-18T07:07:01.118Z,15.63
2023-02-18T07:09:31.390Z,13.53
2023-02-18T07:12:01.417Z,16.77
2023-02-18T07:14:30.745Z,17.00
2023-02-18T07:16:59.356Z,15.53
2023-02-18T07:19:28.292Z,14.77
2023-02-18T07:22:06.532Z,13.53
2023-02-18T07:24:35.124Z,13.30
2023-02-18T07:27:05.448Z,13.47
2023-02-18T07:29:34.059Z,12.70
2023-02-18T07:32:02.806Z,13.27
2023-02-18T07:34:31.761Z,11.70
2023-02-18T07:37:00.378Z,12.57
2023-02-18T07:39:29.012Z,11.43
2023-02-18T07:41:57.740Z,12.37
2023-02-18T07:44:27.995Z,12.40
2023-02-18T07:46:56.659Z,11.00
2023-02-18T07:49:25.492Z,13.33
2023-02-18T07:51:54.105Z,13.90
2023-02-18T07:54:22.695Z,13.13
2023-02-18T07:56:51.340Z,14.87
2023-02-18T07:59:20.006Z,12.87
2023-02-18T08:01:50.072Z,13.93
2023-02-18T08:04:18.919Z,14.30
2023-02-18T08:06:49.981Z,13.60
2023-02-18T08:09:19.670Z,14.67
2023-02-18T08:11:48.471Z,15.43
2023-02-18T08:14:17.036Z,14.57
2023-02-18T08:16:45.835Z,15.20
2023-02-18T08:19:15.839Z,15.10
2023-02-18T08:21:44.505Z,13.57
2023-02-18T08:24:13.062Z,17.97
2023-02-18T08:26:54.546Z,16.33
2023-02-18T08:29:28.459Z,14.93
2023-02-18T08:31:58.961Z,16.73
2023-02-18T08:34:28.955Z,15.03
2023-02-18T08:36:57.527Z,16.87
2023-02-18T08:39:26.136Z,14.10
2023-02-18T08:41:54.797Z,16.50
2023-02-18T08:44:23.367Z,16.50
2023-02-18T08:46:52.094Z,13.77
2023-02-18T08:49:24.114Z,15.40
2023-02-18T08:51:54.134Z,14.33
2023-02-18T08:54:22.999Z,15.43
2023-02-18T08:56:55.080Z,14.37
2023-02-18T08:59:23.626Z,13.73
2023-02-18T09:01:52.439Z,13.47
2023-02-18T09:04:21.426Z,14.23
2023-02-18T09:06:50.149Z,14.37
2023-02-18T09:09:20.557Z,13.27
2023-02-18T09:11:49.906Z,12.80
2023-02-18T09:14:18.600Z,12.53
2023-02-18T09:16:47.444Z,14.00
2023-02-18T09:19:16.056Z,13.63
2023-02-18T09:21:44.905Z,12.27
2023-02-18T09:24:13.514Z,14.33
2023-02-18T09:26:43.528Z,12.93
2023-02-18T09:29:12.176Z,14.07
2023-02-18T09:31:40.869Z,11.60
2023-02-18T09:34:09.515Z,14.03
2023-02-18T09:36:39.535Z,13.57
2023-02-18T09:39:08.499Z,15.00
2023-02-18T09:41:42.438Z,12.43
2023-02-18T09:44:17.494Z,13.83
2023-02-18T09:46:52.321Z,11.63
2023-02-18T09:49:24.878Z,11.93
2023-02-18T09:51:55.204Z,14.67
2023-02-18T09:54:24.454Z,13.33
2023-02-18T09:56:54.801Z,11.60
2023-02-18T09:59:27.550Z,10.93
2023-02-18T10:01:57.212Z,12.10
2023-02-18T10:04:32.278Z,11.43
2023-02-18T10:07:03.652Z,12.13
2023-02-18T10:09:35.961Z,11.73
2023-02-18T10:12:14.773Z,13.10
2023-02-18T10:14:45.678Z,11.13
2023-02-18T10:17:17.504Z,13.37
2023-02-18T10:19:48.760Z,10.90
2023-02-18T10:22:18.768Z,13.67
2023-02-18T10:24:51.467Z,12.67
2023-02-18T10:27:25.969Z,11.73
2023-02-18T10:29:56.640Z,10.33
2023-02-18T10:32:28.796Z,11.83
2023-02-18T10:35:04.585Z,12.43
2023-02-18T10:37:49.143Z,14.23
2023-02-18T10:40:24.880Z,10.73
2023-02-18T10:43:04.785Z,11.23
2023-02-18T10:45:45.614Z,12.23
2023-02-18T10:48:34.526Z,12.37
2023-02-18T10:51:14.035Z,13.57
2023-02-18T10:53:44.890Z,10.73
2023-02-18T10:56:34.592Z,12.77
2023-02-18T10:59:11.995Z,13.47
2023-02-18T11:01:44.482Z,12.67
2023-02-18T11:04:17.040Z,14.77
2023-02-18T11:06:47.756Z,11.57
2023-02-18T11:09:34.476Z,14.90
2023-02-18T11:12:08.742Z,13.80
2023-02-18T11:14:44.449Z,12.70
2023-02-18T11:17:23.779Z,14.17
2023-02-18T11:19:57.741Z,12.73
2023-02-18T11:22:30.093Z,12.80
2023-02-18T11:25:00.260Z,13.20
2023-02-18T11:27:34.506Z,13.60
2023-02-18T11:30:06.376Z,15.40
2023-02-18T11:32:38.078Z,12.43
2023-02-18T11:35:07.173Z,16.23
2023-02-18T11:37:36.948Z,14.70
2023-02-18T11:40:06.989Z,15.13
2023-02-18T11:42:35.899Z,13.07
2023-02-18T11:45:05.791Z,14.63
2023-02-18T11:47:37.081Z,12.80
2023-02-18T11:50:22.184Z,15.13
2023-02-18T11:52:53.959Z,13.33
2023-02-18T11:55:24.946Z,12.90
2023-02-18T11:57:58.601Z,12.37
2023-02-18T12:00:39.041Z,12.77
2023-02-18T12:03:19.280Z,14.23
2023-02-18T12:05:48.293Z,13.17
2023-02-18T12:08:21.909Z,13.70
2023-02-18T12:10:53.005Z,12.70
2023-02-18T12:13:29.610Z,13.40
2023-02-18T12:16:09.855Z,14.07
2023-02-18T12:18:55.581Z,13.50
2023-02-18T12:21:49.050Z,11.70
2023-02-18T12:24:36.383Z,13.80
2023-02-18T12:27:14.607Z,12.00
2023-02-18T12:29:55.647Z,11.77
2023-02-18T12:32:37.155Z,12.03
2023-02-18T12:35:30.571Z,13.70
2023-02-18T12:38:21.278Z,13.20
2023-02-18T12:41:11.543Z,12.07
2023-02-18T12:43:53.850Z,10.67
2023-02-18T12:46:35.386Z,10.27
2023-02-18T12:49:18.839Z,13.13
2023-02-18T12:52:04.747Z,12.00
2023-02-18T12:54:46.998Z,11.37
2023-02-18T12:57:41.878Z,12.00
2023-02-18T13:00:40.902Z,13.07
2023-02-18T13:03:47.999Z,15.37
2023-02-18T13:06:30.961Z,13.10
2023-02-18T13:09:09.751Z,11.33
2023-02-18T13:11:48.801Z,12.20
2023-02-18T13:14:22.044Z,11.50
2023-02-18T13:16:55.051Z,12.40
2023-02-18T13:19:27.652Z,13.50
2023-02-18T13:22:00.883Z,11.03
2023-02-18T13:24:34.893Z,13.63
2023-02-18T13:27:13.922Z,12.00
2023-02-18T13:29:49.858Z,11.73
2023-02-18T13:32:28.433Z,13.80
2023-02-18T13:35:01.594Z,13.10
2023-02-18T13:37:39.212Z,10.03
2023-02-18T13:40:18.064Z,14.13
2023-02-18T13:42:46.898Z,13.40
2023-02-18T13:45:34.030Z,13.80
2023-02-18T13:48:03.424Z,11.93
2023-02-18T13:50:44.298Z,11.77
2023-02-18T13:53:32.127Z,13.33
2023-02-18T13:56:06.359Z,13.13
2023-02-18T13:58:43.814Z,12.13
2023-02-18T14:01:38.677Z,12.80
2023-02-18T14:04:36.575Z,11.97
2023-02-18T14:07:48.275Z,12.07
2023-02-18T14:10:29.200Z,13.50
2023-02-18T14:13:22.517Z,11.77
2023-02-18T14:15:57.213Z,10.67
2023-02-18T14:18:31.670Z,11.90
2023-02-18T14:21:24.268Z,12.40
2023-02-18T14:24:02.524Z,11.03
2023-02-18T14:26:37.331Z,11.40
2023-02-18T14:29:12.794Z,13.37
2023-02-18T14:31:54.502Z,11.97
2023-02-18T14:34:56.788Z,12.03
2023-02-18T14:37:53.870Z,11.40
2023-02-18T14:40:51.052Z,12.03
2023-02-18T14:43:38.620Z,12.10
2023-02-18T14:46:18.125Z,14.53
2023-02-18T14:49:12.270Z,10.60
2023-02-18T14:51:43.218Z,10.90
2023-02-18T14:54:17.131Z,14.50
2023-02-18T14:56:57.593Z,11.27
2023-02-18T14:59:30.067Z,12.17
2023-02-18T15:02:00.131Z,12.53
2023-02-18T15:04:28.925Z,13.37
2023-02-18T15:07:01.947Z,11.43
2023-02-18T15:09:30.973Z,11.30
2023-02-18T15:12:04.589Z,12.23
2023-02-18T15:14:37.997Z,11.07
2023-02-18T15:17:14.261Z,11.13
2023-02-18T15:19:46.020Z,11.73
2023-02-18T15:22:20.036Z,13.67
2023-02-18T15:24:49.612Z,12.07
2023-02-18T15:27:20.674Z,13.17
2023-02-18T15:29:51.714Z,11.47
2023-02-18T15:32:23.640Z,14.17
2023-02-18T15:34:53.532Z,10.60
2023-02-18T15:37:22.204Z,14.27
2023-02-18T15:39:51.781Z,11.20
2023-02-18T15:42:27.445Z,14.57
2023-02-18T15:44:59.639Z,11.73
2023-02-18T15:47:30.291Z,11.97
2023-02-18T15:50:02.520Z,13.77
2023-02-18T15:52:33.675Z,10.93
2023-02-18T15:55:05.889Z,11.63
2023-02-18T15:57:36.490Z,12.80
2023-02-18T16:00:16.003Z,11.33
2023-02-18T16:02:57.250Z,12.37
2023-02-18T16:05:30.027Z,13.63
2023-02-18T16:08:01.584Z,11.53
2023-02-18T16:10:54.247Z,10.40
2023-02-18T16:13:26.366Z,13.53
2023-02-18T16:15:55.486Z,13.47
2023-02-18T16:18:30.291Z,11.00
2023-02-18T16:21:02.754Z,11.83
2023-02-18T16:23:37.825Z,12.03
2023-02-18T16:26:31.450Z,15.97
2023-02-18T16:29:13.839Z,10.43
2023-02-18T16:31:43.100Z,11.03
2023-02-18T16:34:13.132Z,12.80
2023-02-18T16:37:02.506Z,13.27
2023-02-18T16:39:34.379Z,13.13
2023-02-18T16:42:03.294Z,12.47
2023-02-18T16:44:33.829Z,12.77
2023-02-18T16:47:02.688Z,12.57
2023-02-18T16:49:33.550Z,11.90
2023-02-18T16:52:07.220Z,12.03
2023-02-18T16:54:35.861Z,12.43
2023-02-18T16:57:04.492Z,11.23
2023-02-18T16:59:33.194Z,11.07
2023-02-18T17:02:01.881Z,10.93
2023-02-18T17:04:30.500Z,12.83
2023-02-18T17:07:00.599Z,11.93
2023-02-18T17:09:29.237Z,13.43
2023-02-18T17:11:59.934Z,12.00
2023-02-18T17:14:28.575Z,13.63
2023-02-18T17:16:57.871Z,13.10
2023-02-18T17:19:26.499Z,14.87
2023-02-18T17:21:55.080Z,13.40
2023-02-18T17:24:25.102Z,14.90
2023-02-18T17:26:53.824Z,14.63
2023-02-18T17:29:22.662Z,17.33
2023-02-18T17:31:55.110Z,14.03
2023-02-18T17:34:27.778Z,15.53
2023-02-18T17:36:56.537Z,16.10
2023-02-18T17:39:26.557Z,16.03
2023-02-18T17:41:55.139Z,17.63
2023-02-18T17:44:26.096Z,17.77
2023-02-18T17:46:54.916Z,18.43
2023-02-18T17:49:23.632Z,18.73
2023-02-18T17:51:52.637Z,15.97
2023-02-18T17:54:26.089Z,16.80
2023-02-18T17:56:57.309Z,16.77
2023-02-18T17:59:27.145Z,18.43
2023-02-18T18:01:55.709Z,16.53
2023-02-18T18:04:24.399Z,16.50
2023-02-18T18:06:53.098Z,16.23
2023-02-18T18:09:21.747Z,17.53
2023-02-18T18:11:50.681Z,15.43
2023-02-18T18:14:20.954Z,17.00
2023-02-18T18:16:49.711Z,16.70
2023-02-18T18:19:18.423Z,16.33
2023-02-18T18:21:48.928Z,16.43
2023-02-18T18:24:17.535Z,15.97
2023-02-18T18:26:46.288Z,15.53
2023-02-18T18:29:14.853Z,18.07
2023-02-18T18:31:44.889Z,15.73
2023-02-18T18:34:16.671Z,17.10
2023-02-18T18:36:45.313Z,15.87
2023-02-18T18:39:14.008Z,16.00
2023-02-18T18:41:42.602Z,16.97
2023-02-18T18:44:12.593Z,17.40
2023-02-18T18:46:41.233Z,18.40
2023-02-18T18:49:11.317Z,16.83
2023-02-18T18:51:40.020Z,17.07
2023-02-18T18:54:08.692Z,17.30
2023-02-18T18:56:38.454Z,17.80
2023-02-18T18:59:08.605Z,16.83
2023-02-18T19:01:37.390Z,16.13
2023-02-18T19:04:06.429Z,17.47
2023-02-18T19:06:36.648Z,17.37
2023-02-18T19:09:05.287Z,15.93
2023-02-18T19:11:33.971Z,16.23
2023-02-18T19:14:04.677Z,17.37
2023-02-18T19:16:37.606Z,17.30
2023-02-18T19:19:06.252Z,16.23
2023-02-18T19:21:36.330Z,18.07
2023-02-18T19:24:05.452Z,18.10
2023-02-18T19:26:34.096Z,17.23
2023-02-18T19:29:02.723Z,17.77
2023-02-18T19:31:31.511Z,21.23
2023-02-18T19:34:00.132Z,18.23
2023-02-18T19:36:28.769Z,18.27
2023-02-18T19:38:58.962Z,18.57
2023-02-18T19:41:27.581Z,19.93
2023-02-18T19:43:56.114Z,20.63
2023-02-18T19:46:24.900Z,18.67
2023-02-18T19:48:53.932Z,20.30
2023-02-18T19:51:23.227Z,20.27
2023-02-18T19:53:52.108Z,19.93
2023-02-18T19:56:24.338Z,19.80
2023-02-18T19:58:56.527Z,18.57
2023-02-18T20:01:25.243Z,22.30
2023-02-18T20:03:53.954Z,23.07
2023-02-18T20:06:23.234Z,24.93
2023-02-18T20:08:54.078Z,22.00
2023-02-18T20:11:25.123Z,23.60
2023-02-18T20:13:53.732Z,22.83
2023-02-18T20:16:22.424Z,24.77
2023-02-18T20:18:51.138Z,23.30
2023-02-18T20:21:19.853Z,25.33
2023-02-18T20:23:48.716Z,21.83
2023-02-18T20:26:17.491Z,23.37
2023-02-18T20:28:47.497Z,20.07
2023-02-18T20:31:16.673Z,23.60
2023-02-18T20:33:45.984Z,20.93
2023-02-18T20:36:15.488Z,19.67
2023-02-18T20:38:44.270Z,21.03
2023-02-18T20:41:14.834Z,21.40
2023-02-18T20:43:43.449Z,19.47
2023-02-18T20:46:15.387Z,20.10
2023-02-18T20:48:44.134Z,19.23
2023-02-18T20:51:15.657Z,18.00
2023-02-18T20:53:45.837Z,17.37
2023-02-18T20:56:15.619Z,18.93
2023-02-18T20:58:44.487Z,18.33
2023-02-18T21:01:19.065Z,16.70
2023-02-18T21:03:50.270Z,17.13
2023-02-18T21:06:21.063Z,19.30
2023-02-18T21:08:51.918Z,19.57
2023-02-18T21:11:22.169Z,20.90
2023-02-18T21:13:53.324Z,18.17
2023-02-18T21:16:24.703Z,21.10
2023-02-18T21:18:53.654Z,18.10
2023-02-18T21:21:24.696Z,19.83
2023-02-18T21:23:54.373Z,17.70
2023-02-18T21:26:25.027Z,19.60
2023-02-18T21:28:55.395Z,17.87
2023-02-18T21:31:27.458Z,20.83
2023-02-18T21:33:56.851Z,18.97
2023-02-18T21:36:26.219Z,18.80
2023-02-18T21:38:55.899Z,18.83
2023-02-18T21:41:25.423Z,18.90
2023-02-18T21:43:54.398Z,19.67
2023-02-18T21:46:26.392Z,18.30
2023-02-18T21:49:06.050Z,17.67
2023-02-18T21:51:54.986Z,15.73
2023-02-18T21:54:26.206Z,17.13
2023-02-18T21:56:55.520Z,15.67
2023-02-18T21:59:27.187Z,17.47
2023-02-18T22:01:59.917Z,14.57
2023-02-18T22:04:29.598Z,16.50
2023-02-18T22:06:58.802Z,14.97
2023-02-18T22:09:27.877Z,15.77
2023-02-18T22:11:56.870Z,15.07
2023-02-18T22:14:25.690Z,16.63
2023-02-18T22:16:54.456Z,17.27
2023-02-18T22:19:24.826Z,15.33
2023-02-18T22:21:53.634Z,15.13
2023-02-18T22:24:22.331Z,16.10
2023-02-18T22:26:51.047Z,14.07
2023-02-18T22:29:21.024Z,15.17
2023-02-18T22:31:53.300Z,15.23
2023-02-18T22:34:22.911Z,17.40
2023-02-18T22:36:52.912Z,20.07
2023-02-18T22:39:21.677Z,18.17
2023-02-18T22:41:50.469Z,18.33
2023-02-18T22:44:20.534Z,17.57
2023-02-18T22:46:49.115Z,19.50
2023-02-18T22:49:17.937Z,21.83
2023-02-18T22:51:46.725Z,21.53
2023-02-18T22:54:18.298Z,21.70
2023-02-18T22:56:47.929Z,19.20
2023-02-18T22:59:18.628Z,19.40
2023-02-18T23:01:49.830Z,20.03
2023-02-18T23:04:20.206Z,19.63
2023-02-18T23:06:49.748Z,19.93
2023-02-18T23:09:21.917Z,20.63
2023-02-18T23:11:51.959Z,20.63
2023-02-18T23:14:21.721Z,22.43
2023-02-18T23:17:09.178Z,19.43
2023-02-18T23:19:38.485Z,22.07
2023-02-18T23:22:07.308Z,21.33
2023-02-18T23:24:39.285Z,22.90
2023-02-18T23:27:10.250Z,19.77
2023-02-18T23:29:39.696Z,21.00
2023-02-18T23:32:08.363Z,20.83
2023-02-18T23:34:38.246Z,19.63
2023-02-18T23:37:07.309Z,23.30
2023-02-18T23:39:37.310Z,19.20
2023-02-18T23:42:06.029Z,19.10
2023-02-18T23:44:34.631Z,19.73
2023-02-18T23:47:03.270Z,19.03
2023-02-18T23:49:31.864Z,22.10
2023-02-18T23:52:00.417Z,19.40
2023-02-18T23:54:29.125Z,19.07
2023-02-18T23:56:59.075Z,19.20
2023-02-18T23:59:27.738Z,19.77
